sensor_id;sensor_type;location;lat;lon;timestamp;P1;durP1;ratioP1;P2;durP2;ratioP2
37997;SDS011;24079;51.824;4.682;2023-09-12T00:01:41;29.77;;;20.90;;
37997;SDS011;24079;51.824;4.682;2023-09-12T00:04:06;35.25;;;21.85;;
37997;SDS011;24079;51.824;4.682;2023-09-12T00:06:32;29.98;;;20.73;;
37997;SDS011;24079;51.824;4.682;2023-09-12T00:08:58;29.02;;;20.00;;
37997;SDS011;24079;51.824;4.682;2023-09-12T00:11:23;34.17;;;23.52;;
37997;SDS011;24079;51.824;4.682;2023-09-12T00:13:50;30.35;;;21.98;;
37997;SDS011;24079;51.824;4.682;2023-09-12T00:16:17;30.27;;;20.92;;
37997;SDS011;24079;51.824;4.682;2023-09-12T00:18:42;30.08;;;19.45;;
37997;SDS011;24079;51.824;4.682;2023-09-12T00:21:08;31.50;;;20.88;;
37997;SDS011;24079;51.824;4.682;2023-09-12T00:23:34;28.52;;;20.63;;
37997;SDS011;24079;51.824;4.682;2023-09-12T00:26:00;29.25;;;20.92;;
37997;SDS011;24079;51.824;4.682;2023-09-12T00:28:26;30.17;;;21.75;;
37997;SDS011;24079;51.824;4.682;2023-09-12T00:30:52;32.83;;;24.63;;
37997;SDS011;24079;51.824;4.682;2023-09-12T00:33:18;27.88;;;20.13;;
37997;SDS011;24079;51.824;4.682;2023-09-12T00:35:44;33.58;;;23.20;;
37997;SDS011;24079;51.824;4.682;2023-09-12T00:38:09;32.17;;;22.25;;
37997;SDS011;24079;51.824;4.682;2023-09-12T00:40:35;31.10;;;22.70;;
37997;SDS011;24079;51.824;4.682;2023-09-12T00:43:02;31.73;;;21.73;;
37997;SDS011;24079;51.824;4.682;2023-09-12T00:45:28;32.38;;;23.52;;
37997;SDS011;24079;51.824;4.682;2023-09-12T00:47:54;29.70;;;21.40;;
37997;SDS011;24079;51.824;4.682;2023-09-12T00:50:22;31.17;;;21.98;;
37997;SDS011;24079;51.824;4.682;2023-09-12T00:52:49;31.25;;;20.60;;
37997;SDS011;24079;51.824;4.682;2023-09-12T00:55:15;27.67;;;19.80;;
37997;SDS011;24079;51.824;4.682;2023-09-12T00:57:41;28.45;;;21.33;;
37997;SDS011;24079;51.824;4.682;2023-09-12T01:00:08;31.88;;;22.45;;
37997;SDS011;24079;51.824;4.682;2023-09-12T01:02:41;33.67;;;22.55;;
37997;SDS011;24079;51.824;4.682;2023-09-12T01:05:07;32.17;;;21.98;;
37997;SDS011;24079;51.824;4.682;2023-09-12T01:07:35;37.33;;;25.20;;
37997;SDS011;24079;51.824;4.682;2023-09-12T01:10:02;33.00;;;23.98;;
37997;SDS011;24079;51.824;4.682;2023-09-12T01:12:29;30.55;;;20.20;;
37997;SDS011;24079;51.824;4.682;2023-09-12T01:14:55;35.80;;;21.20;;
37997;SDS011;24079;51.824;4.682;2023-09-12T01:17:22;33.35;;;23.10;;
37997;SDS011;24079;51.824;4.682;2023-09-12T01:19:49;34.03;;;22.73;;
37997;SDS011;24079;51.824;4.682;2023-09-12T01:22:23;36.85;;;24.13;;
37997;SDS011;24079;51.824;4.682;2023-09-12T01:25:14;34.70;;;23.48;;
37997;SDS011;24079;51.824;4.682;2023-09-12T01:27:51;36.22;;;23.63;;
37997;SDS011;24079;51.824;4.682;2023-09-12T01:30:20;42.30;;;27.85;;
37997;SDS011;24079;51.824;4.682;2023-09-12T01:32:47;39.92;;;26.38;;
37997;SDS011;24079;51.824;4.682;2023-09-12T01:35:14;42.50;;;28.83;;
37997;SDS011;24079;51.824;4.682;2023-09-12T01:37:40;38.28;;;27.52;;
37997;SDS011;24079;51.824;4.682;2023-09-12T01:40:06;41.30;;;27.17;;
37997;SDS011;24079;51.824;4.682;2023-09-12T01:42:36;43.47;;;28.15;;
37997;SDS011;24079;51.824;4.682;2023-09-12T01:45:04;40.30;;;25.65;;
37997;SDS011;24079;51.824;4.682;2023-09-12T01:47:31;42.55;;;28.30;;
37997;SDS011;24079;51.824;4.682;2023-09-12T01:49:59;38.53;;;26.85;;
37997;SDS011;24079;51.824;4.682;2023-09-12T01:52:27;43.10;;;28.60;;
37997;SDS011;24079;51.824;4.682;2023-09-12T01:54:53;36.63;;;24.23;;
37997;SDS011;24079;51.824;4.682;2023-09-12T01:57:20;38.88;;;23.50;;
37997;SDS011;24079;51.824;4.682;2023-09-12T01:59:46;36.53;;;22.50;;
37997;SDS011;24079;51.824;4.682;2023-09-12T02:02:16;35.97;;;22.08;;
37997;SDS011;24079;51.824;4.682;2023-09-12T02:04:45;32.95;;;21.55;;
37997;SDS011;24079;51.824;4.682;2023-09-12T02:07:20;27.33;;;18.17;;
37997;SDS011;24079;51.824;4.682;2023-09-12T02:09:48;32.55;;;20.15;;
37997;SDS011;24079;51.824;4.682;2023-09-12T02:12:14;36.17;;;22.27;;
37997;SDS011;24079;51.824;4.682;2023-09-12T02:14:39;33.58;;;21.83;;
37997;SDS011;24079;51.824;4.682;2023-09-12T02:17:05;33.63;;;22.17;;
37997;SDS011;24079;51.824;4.682;2023-09-12T02:19:31;33.33;;;21.77;;
37997;SDS011;24079;51.824;4.682;2023-09-12T02:21:57;35.00;;;22.80;;
37997;SDS011;24079;51.824;4.682;2023-09-12T02:24:23;30.48;;;20.63;;
37997;SDS011;24079;51.824;4.682;2023-09-12T02:26:49;32.38;;;21.27;;
37997;SDS011;24079;51.824;4.682;2023-09-12T02:29:15;41.38;;;24.75;;
37997;SDS011;24079;51.824;4.682;2023-09-12T02:31:41;32.03;;;20.20;;
37997;SDS011;24079;51.824;4.682;2023-09-12T02:34:07;38.05;;;24.50;;
37997;SDS011;24079;51.824;4.682;2023-09-12T02:36:33;39.53;;;25.52;;
37997;SDS011;24079;51.824;4.682;2023-09-12T02:38:59;37.28;;;24.27;;
37997;SDS011;24079;51.824;4.682;2023-09-12T02:41:26;36.83;;;24.95;;
37997;SDS011;24079;51.824;4.682;2023-09-12T02:43:52;40.75;;;23.67;;
37997;SDS011;24079;51.824;4.682;2023-09-12T02:46:19;38.30;;;24.25;;
37997;SDS011;24079;51.824;4.682;2023-09-12T02:48:45;38.45;;;24.85;;
37997;SDS011;24079;51.824;4.682;2023-09-12T02:51:11;36.03;;;24.05;;
37997;SDS011;24079;51.824;4.682;2023-09-12T02:53:37;35.95;;;24.67;;
37997;SDS011;24079;51.824;4.682;2023-09-12T02:56:03;37.47;;;22.95;;
37997;SDS011;24079;51.824;4.682;2023-09-12T02:58:29;36.88;;;24.92;;
37997;SDS011;24079;51.824;4.682;2023-09-12T03:00:55;36.78;;;23.30;;
37997;SDS011;24079;51.824;4.682;2023-09-12T03:03:21;37.35;;;24.55;;
37997;SDS011;24079;51.824;4.682;2023-09-12T03:05:46;33.88;;;21.75;;
37997;SDS011;24079;51.824;4.682;2023-09-12T03:08:12;32.63;;;21.13;;
37997;SDS011;24079;51.824;4.682;2023-09-12T03:10:37;36.72;;;23.88;;
37997;SDS011;24079;51.824;4.682;2023-09-12T03:13:03;40.20;;;24.95;;
37997;SDS011;24079;51.824;4.682;2023-09-12T03:15:29;36.88;;;25.25;;
37997;SDS011;24079;51.824;4.682;2023-09-12T03:17:54;36.00;;;24.42;;
37997;SDS011;24079;51.824;4.682;2023-09-12T03:20:20;40.03;;;25.77;;
37997;SDS011;24079;51.824;4.682;2023-09-12T03:22:45;38.80;;;26.30;;
37997;SDS011;24079;51.824;4.682;2023-09-12T03:25:11;41.88;;;26.75;;
37997;SDS011;24079;51.824;4.682;2023-09-12T03:27:37;39.83;;;27.60;;
37997;SDS011;24079;51.824;4.682;2023-09-12T03:30:03;36.45;;;25.73;;
37997;SDS011;24079;51.824;4.682;2023-09-12T03:32:30;43.42;;;29.52;;
37997;SDS011;24079;51.824;4.682;2023-09-12T03:34:55;51.83;;;33.90;;
37997;SDS011;24079;51.824;4.682;2023-09-12T03:37:21;45.25;;;30.75;;
37997;SDS011;24079;51.824;4.682;2023-09-12T03:39:47;40.08;;;28.33;;
37997;SDS011;24079;51.824;4.682;2023-09-12T03:42:12;42.80;;;28.98;;
37997;SDS011;24079;51.824;4.682;2023-09-12T03:44:38;48.97;;;31.15;;
37997;SDS011;24079;51.824;4.682;2023-09-12T03:47:04;43.97;;;29.00;;
37997;SDS011;24079;51.824;4.682;2023-09-12T03:49:29;47.92;;;30.27;;
37997;SDS011;24079;51.824;4.682;2023-09-12T03:51:55;42.17;;;29.80;;
37997;SDS011;24079;51.824;4.682;2023-09-12T03:54:22;43.42;;;29.70;;
37997;SDS011;24079;51.824;4.682;2023-09-12T03:56:48;45.13;;;29.60;;
37997;SDS011;24079;51.824;4.682;2023-09-12T03:59:14;45.58;;;28.85;;
37997;SDS011;24079;51.824;4.682;2023-09-12T04:01:40;46.65;;;32.17;;
37997;SDS011;24079;51.824;4.682;2023-09-12T04:04:06;47.00;;;30.98;;
37997;SDS011;24079;51.824;4.682;2023-09-12T04:06:32;44.45;;;28.33;;
37997;SDS011;24079;51.824;4.682;2023-09-12T04:08:58;40.33;;;27.45;;
37997;SDS011;24079;51.824;4.682;2023-09-12T04:11:24;46.47;;;30.38;;
37997;SDS011;24079;51.824;4.682;2023-09-12T04:13:50;47.45;;;31.98;;
37997;SDS011;24079;51.824;4.682;2023-09-12T04:16:15;46.42;;;30.92;;
37997;SDS011;24079;51.824;4.682;2023-09-12T04:18:41;52.47;;;31.42;;
37997;SDS011;24079;51.824;4.682;2023-09-12T04:21:07;51.83;;;31.20;;
37997;SDS011;24079;51.824;4.682;2023-09-12T04:23:32;45.60;;;29.83;;
37997;SDS011;24079;51.824;4.682;2023-09-12T04:25:58;58.90;;;34.75;;
37997;SDS011;24079;51.824;4.682;2023-09-12T04:28:28;53.50;;;31.25;;
37997;SDS011;24079;51.824;4.682;2023-09-12T04:31:00;57.63;;;34.53;;
37997;SDS011;24079;51.824;4.682;2023-09-12T04:33:27;56.22;;;34.10;;
37997;SDS011;24079;51.824;4.682;2023-09-12T04:35:52;58.42;;;34.40;;
37997;SDS011;24079;51.824;4.682;2023-09-12T04:38:18;52.75;;;32.45;;
37997;SDS011;24079;51.824;4.682;2023-09-12T04:40:52;62.20;;;34.35;;
37997;SDS011;24079;51.824;4.682;2023-09-12T04:43:19;50.28;;;31.15;;
37997;SDS011;24079;51.824;4.682;2023-09-12T04:45:44;62.55;;;35.47;;
37997;SDS011;24079;51.824;4.682;2023-09-12T04:48:10;53.30;;;32.40;;
37997;SDS011;24079;51.824;4.682;2023-09-12T04:50:40;65.80;;;38.25;;
37997;SDS011;24079;51.824;4.682;2023-09-12T04:53:06;69.00;;;38.75;;
37997;SDS011;24079;51.824;4.682;2023-09-12T04:55:32;70.95;;;39.40;;
37997;SDS011;24079;51.824;4.682;2023-09-12T04:58:01;69.28;;;39.78;;
37997;SDS011;24079;51.824;4.682;2023-09-12T05:00:26;69.03;;;39.63;;
37997;SDS011;24079;51.824;4.682;2023-09-12T05:02:52;69.45;;;39.53;;
37997;SDS011;24079;51.824;4.682;2023-09-12T05:05:17;80.10;;;42.65;;
37997;SDS011;24079;51.824;4.682;2023-09-12T05:07:43;72.15;;;42.25;;
37997;SDS011;24079;51.824;4.682;2023-09-12T05:10:09;75.60;;;41.05;;
37997;SDS011;24079;51.824;4.682;2023-09-12T05:12:34;71.97;;;42.25;;
37997;SDS011;24079;51.824;4.682;2023-09-12T05:15:00;73.38;;;41.38;;
37997;SDS011;24079;51.824;4.682;2023-09-12T05:17:25;73.97;;;42.85;;
37997;SDS011;24079;51.824;4.682;2023-09-12T05:19:52;70.38;;;40.25;;
37997;SDS011;24079;51.824;4.682;2023-09-12T05:22:18;74.88;;;42.53;;
37997;SDS011;24079;51.824;4.682;2023-09-12T05:24:44;71.00;;;40.58;;
37997;SDS011;24079;51.824;4.682;2023-09-12T05:27:10;69.40;;;39.35;;
37997;SDS011;24079;51.824;4.682;2023-09-12T05:29:36;67.93;;;40.67;;
37997;SDS011;24079;51.824;4.682;2023-09-12T05:32:02;70.03;;;40.72;;
37997;SDS011;24079;51.824;4.682;2023-09-12T05:34:29;67.07;;;39.67;;
37997;SDS011;24079;51.824;4.682;2023-09-12T05:36:54;70.32;;;40.47;;
37997;SDS011;24079;51.824;4.682;2023-09-12T05:39:21;74.78;;;42.55;;
37997;SDS011;24079;51.824;4.682;2023-09-12T05:41:46;66.18;;;39.50;;
37997;SDS011;24079;51.824;4.682;2023-09-12T05:44:12;70.78;;;40.38;;
37997;SDS011;24079;51.824;4.682;2023-09-12T05:46:42;75.18;;;41.38;;
37997;SDS011;24079;51.824;4.682;2023-09-12T05:49:09;73.38;;;40.85;;
37997;SDS011;24079;51.824;4.682;2023-09-12T05:51:35;64.32;;;35.58;;
37997;SDS011;24079;51.824;4.682;2023-09-12T05:54:01;70.95;;;40.67;;
37997;SDS011;24079;51.824;4.682;2023-09-12T05:56:28;68.32;;;40.20;;
37997;SDS011;24079;51.824;4.682;2023-09-12T05:58:54;65.32;;;39.17;;
37997;SDS011;24079;51.824;4.682;2023-09-12T06:01:19;64.20;;;38.33;;
37997;SDS011;24079;51.824;4.682;2023-09-12T06:03:45;63.95;;;38.47;;
37997;SDS011;24079;51.824;4.682;2023-09-12T06:06:11;68.18;;;38.40;;
37997;SDS011;24079;51.824;4.682;2023-09-12T06:08:37;60.55;;;36.47;;
37997;SDS011;24079;51.824;4.682;2023-09-12T06:11:03;73.75;;;42.08;;
37997;SDS011;24079;51.824;4.682;2023-09-12T06:13:29;65.70;;;39.22;;
37997;SDS011;24079;51.824;4.682;2023-09-12T06:15:58;71.30;;;41.45;;
37997;SDS011;24079;51.824;4.682;2023-09-12T06:18:25;71.82;;;41.42;;
37997;SDS011;24079;51.824;4.682;2023-09-12T06:20:53;60.47;;;38.45;;
37997;SDS011;24079;51.824;4.682;2023-09-12T06:23:19;63.95;;;38.28;;
37997;SDS011;24079;51.824;4.682;2023-09-12T06:25:44;65.75;;;37.70;;
37997;SDS011;24079;51.824;4.682;2023-09-12T06:28:10;72.95;;;42.08;;
37997;SDS011;24079;51.824;4.682;2023-09-12T06:30:35;68.15;;;42.42;;
37997;SDS011;24079;51.824;4.682;2023-09-12T06:33:01;68.57;;;41.47;;
37997;SDS011;24079;51.824;4.682;2023-09-12T06:35:27;70.22;;;40.28;;
37997;SDS011;24079;51.824;4.682;2023-09-12T06:37:53;76.47;;;42.75;;
37997;SDS011;24079;51.824;4.682;2023-09-12T06:40:21;80.38;;;47.05;;
37997;SDS011;24079;51.824;4.682;2023-09-12T06:42:46;74.05;;;42.65;;
37997;SDS011;24079;51.824;4.682;2023-09-12T06:45:12;75.18;;;43.20;;
37997;SDS011;24079;51.824;4.682;2023-09-12T06:47:38;74.55;;;43.92;;
37997;SDS011;24079;51.824;4.682;2023-09-12T06:50:03;75.28;;;46.33;;
37997;SDS011;24079;51.824;4.682;2023-09-12T06:52:29;84.82;;;46.63;;
37997;SDS011;24079;51.824;4.682;2023-09-12T06:54:55;79.38;;;45.97;;
37997;SDS011;24079;51.824;4.682;2023-09-12T06:57:21;74.55;;;43.47;;
37997;SDS011;24079;51.824;4.682;2023-09-12T06:59:47;73.47;;;44.00;;
37997;SDS011;24079;51.824;4.682;2023-09-12T07:02:14;74.95;;;45.53;;
37997;SDS011;24079;51.824;4.682;2023-09-12T07:04:41;74.40;;;44.13;;
37997;SDS011;24079;51.824;4.682;2023-09-12T07:07:07;78.18;;;45.60;;
37997;SDS011;24079;51.824;4.682;2023-09-12T07:09:33;75.88;;;41.22;;
37997;SDS011;24079;51.824;4.682;2023-09-12T07:11:59;68.63;;;39.78;;
37997;SDS011;24079;51.824;4.682;2023-09-12T07:14:25;68.80;;;40.10;;
37997;SDS011;24079;51.824;4.682;2023-09-12T07:16:51;68.45;;;41.22;;
37997;SDS011;24079;51.824;4.682;2023-09-12T07:19:17;67.00;;;41.53;;
37997;SDS011;24079;51.824;4.682;2023-09-12T07:21:43;73.93;;;41.70;;
37997;SDS011;24079;51.824;4.682;2023-09-12T07:24:09;69.95;;;40.28;;
37997;SDS011;24079;51.824;4.682;2023-09-12T07:26:35;70.72;;;41.10;;
37997;SDS011;24079;51.824;4.682;2023-09-12T07:29:01;71.72;;;41.55;;
37997;SDS011;24079;51.824;4.682;2023-09-12T07:31:30;72.00;;;43.53;;
37997;SDS011;24079;51.824;4.682;2023-09-12T07:33:56;67.43;;;42.30;;
37997;SDS011;24079;51.824;4.682;2023-09-12T07:36:22;67.15;;;41.63;;
37997;SDS011;24079;51.824;4.682;2023-09-12T07:38:48;70.30;;;43.17;;
37997;SDS011;24079;51.824;4.682;2023-09-12T07:41:15;66.85;;;41.13;;
37997;SDS011;24079;51.824;4.682;2023-09-12T07:43:40;74.40;;;45.55;;
37997;SDS011;24079;51.824;4.682;2023-09-12T07:46:06;67.78;;;41.72;;
37997;SDS011;24079;51.824;4.682;2023-09-12T07:48:31;70.75;;;43.40;;
37997;SDS011;24079;51.824;4.682;2023-09-12T07:50:57;68.60;;;44.17;;
37997;SDS011;24079;51.824;4.682;2023-09-12T07:53:23;68.60;;;43.33;;
37997;SDS011;24079;51.824;4.682;2023-09-12T07:55:49;72.78;;;46.58;;
37997;SDS011;24079;51.824;4.682;2023-09-12T07:58:15;70.13;;;46.35;;
37997;SDS011;24079;51.824;4.682;2023-09-12T08:00:45;68.13;;;45.45;;
37997;SDS011;24079;51.824;4.682;2023-09-12T08:03:11;74.10;;;47.72;;
37997;SDS011;24079;51.824;4.682;2023-09-12T08:05:37;71.43;;;45.47;;
37997;SDS011;24079;51.824;4.682;2023-09-12T08:08:03;71.38;;;46.38;;
37997;SDS011;24079;51.824;4.682;2023-09-12T08:10:29;74.15;;;46.28;;
37997;SDS011;24079;51.824;4.682;2023-09-12T08:12:56;68.32;;;47.70;;
37997;SDS011;24079;51.824;4.682;2023-09-12T08:15:22;70.60;;;46.63;;
37997;SDS011;24079;51.824;4.682;2023-09-12T08:17:48;71.07;;;48.05;;
37997;SDS011;24079;51.824;4.682;2023-09-12T08:20:20;64.72;;;46.53;;
37997;SDS011;24079;51.824;4.682;2023-09-12T08:22:47;65.43;;;47.42;;
37997;SDS011;24079;51.824;4.682;2023-09-12T08:25:14;71.15;;;48.55;;
37997;SDS011;24079;51.824;4.682;2023-09-12T08:27:40;68.82;;;50.85;;
37997;SDS011;24079;51.824;4.682;2023-09-12T08:30:07;69.43;;;50.00;;
37997;SDS011;24079;51.824;4.682;2023-09-12T08:32:34;76.97;;;53.13;;
37997;SDS011;24079;51.824;4.682;2023-09-12T08:35:01;68.93;;;50.38;;
37997;SDS011;24079;51.824;4.682;2023-09-12T08:37:28;65.35;;;49.45;;
37997;SDS011;24079;51.824;4.682;2023-09-12T08:39:54;77.07;;;52.85;;
37997;SDS011;24079;51.824;4.682;2023-09-12T08:42:23;69.45;;;50.75;;
37997;SDS011;24079;51.824;4.682;2023-09-12T08:44:55;73.25;;;49.33;;
37997;SDS011;24079;51.824;4.682;2023-09-12T08:47:22;69.13;;;48.17;;
37997;SDS011;24079;51.824;4.682;2023-09-12T08:49:50;67.70;;;46.28;;
37997;SDS011;24079;51.824;4.682;2023-09-12T08:52:16;67.38;;;47.13;;
37997;SDS011;24079;51.824;4.682;2023-09-12T08:54:42;73.63;;;50.40;;
37997;SDS011;24079;51.824;4.682;2023-09-12T08:57:08;69.00;;;49.83;;
37997;SDS011;24079;51.824;4.682;2023-09-12T08:59:37;68.72;;;49.17;;
37997;SDS011;24079;51.824;4.682;2023-09-12T09:02:05;69.72;;;48.85;;
37997;SDS011;24079;51.824;4.682;2023-09-12T09:04:35;66.82;;;48.97;;
37997;SDS011;24079;51.824;4.682;2023-09-12T09:07:03;70.75;;;48.85;;
37997;SDS011;24079;51.824;4.682;2023-09-12T09:09:30;66.57;;;47.05;;
37997;SDS011;24079;51.824;4.682;2023-09-12T09:11:56;63.05;;;46.47;;
37997;SDS011;24079;51.824;4.682;2023-09-12T09:14:22;62.88;;;45.45;;
37997;SDS011;24079;51.824;4.682;2023-09-12T09:16:49;63.58;;;45.92;;
37997;SDS011;24079;51.824;4.682;2023-09-12T09:19:16;64.00;;;47.78;;
37997;SDS011;24079;51.824;4.682;2023-09-12T09:21:43;60.42;;;43.53;;
37997;SDS011;24079;51.824;4.682;2023-09-12T09:24:11;59.72;;;43.25;;
37997;SDS011;24079;51.824;4.682;2023-09-12T09:29:15;58.45;;;43.03;;
37997;SDS011;24079;51.824;4.682;2023-09-12T09:31:44;55.85;;;41.90;;
37997;SDS011;24079;51.824;4.682;2023-09-12T09:34:15;59.30;;;42.78;;
37997;SDS011;24079;51.824;4.682;2023-09-12T09:36:48;63.22;;;46.25;;
37997;SDS011;24079;51.824;4.682;2023-09-12T09:39:19;57.00;;;41.90;;
37997;SDS011;24079;51.824;4.682;2023-09-12T09:41:47;63.42;;;44.55;;
37997;SDS011;24079;51.824;4.682;2023-09-12T09:44:18;62.60;;;44.33;;
37997;SDS011;24079;51.824;4.682;2023-09-12T09:46:46;64.05;;;47.08;;
37997;SDS011;24079;51.824;4.682;2023-09-12T09:49:16;67.07;;;48.60;;
37997;SDS011;24079;51.824;4.682;2023-09-12T09:51:45;68.30;;;47.60;;
37997;SDS011;24079;51.824;4.682;2023-09-12T09:54:11;65.95;;;47.15;;
37997;SDS011;24079;51.824;4.682;2023-09-12T09:56:47;66.45;;;48.05;;
37997;SDS011;24079;51.824;4.682;2023-09-12T09:59:24;62.88;;;46.78;;
37997;SDS011;24079;51.824;4.682;2023-09-12T10:01:52;64.40;;;46.72;;
37997;SDS011;24079;51.824;4.682;2023-09-12T10:04:21;64.97;;;46.83;;
37997;SDS011;24079;51.824;4.682;2023-09-12T10:06:48;62.92;;;45.28;;
37997;SDS011;24079;51.824;4.682;2023-09-12T10:09:14;61.58;;;44.05;;
37997;SDS011;24079;51.824;4.682;2023-09-12T10:11:42;60.95;;;42.70;;
37997;SDS011;24079;51.824;4.682;2023-09-12T10:14:08;66.38;;;44.92;;
37997;SDS011;24079;51.824;4.682;2023-09-12T10:16:43;62.78;;;44.05;;
37997;SDS011;24079;51.824;4.682;2023-09-12T10:19:15;62.35;;;44.45;;
37997;SDS011;24079;51.824;4.682;2023-09-12T10:21:46;65.03;;;47.60;;
37997;SDS011;24079;51.824;4.682;2023-09-12T10:24:33;63.58;;;46.30;;
37997;SDS011;24079;51.824;4.682;2023-09-12T10:27:01;64.00;;;45.42;;
37997;SDS011;24079;51.824;4.682;2023-09-12T10:29:29;63.53;;;46.80;;
37997;SDS011;24079;51.824;4.682;2023-09-12T10:31:56;62.25;;;43.53;;
37997;SDS011;24079;51.824;4.682;2023-09-12T10:34:24;64.45;;;45.13;;
37997;SDS011;24079;51.824;4.682;2023-09-12T10:36:51;64.53;;;46.85;;
37997;SDS011;24079;51.824;4.682;2023-09-12T10:39:20;65.00;;;47.60;;
37997;SDS011;24079;51.824;4.682;2023-09-12T10:41:48;62.45;;;45.05;;
37997;SDS011;24079;51.824;4.682;2023-09-12T10:44:17;61.97;;;44.45;;
37997;SDS011;24079;51.824;4.682;2023-09-12T10:46:44;63.60;;;45.42;;
37997;SDS011;24079;51.824;4.682;2023-09-12T10:49:12;58.15;;;41.65;;
37997;SDS011;24079;51.824;4.682;2023-09-12T10:51:44;64.50;;;46.88;;
37997;SDS011;24079;51.824;4.682;2023-09-12T10:59:30;56.97;;;42.42;;
37997;SDS011;24079;51.824;4.682;2023-09-12T11:02:26;61.75;;;43.03;;
37997;SDS011;24079;51.824;4.682;2023-09-12T11:04:52;58.92;;;42.22;;
37997;SDS011;24079;51.824;4.682;2023-09-12T11:12:54;61.47;;;42.45;;
37997;SDS011;24079;51.824;4.682;2023-09-12T11:15:23;58.97;;;43.15;;
37997;SDS011;24079;51.824;4.682;2023-09-12T11:18:01;59.17;;;42.88;;
37997;SDS011;24079;51.824;4.682;2023-09-12T11:20:55;59.42;;;42.30;;
37997;SDS011;24079;51.824;4.682;2023-09-12T11:23:25;58.78;;;42.42;;
37997;SDS011;24079;51.824;4.682;2023-09-12T11:26:10;53.03;;;40.83;;
37997;SDS011;24079;51.824;4.682;2023-09-12T11:28:38;60.17;;;44.00;;
37997;SDS011;24079;51.824;4.682;2023-09-12T11:31:04;59.38;;;42.38;;
37997;SDS011;24079;51.824;4.682;2023-09-12T11:33:31;55.95;;;39.20;;
37997;SDS011;24079;51.824;4.682;2023-09-12T11:35:57;58.47;;;42.83;;
37997;SDS011;24079;51.824;4.682;2023-09-12T11:38:28;58.55;;;41.47;;
37997;SDS011;24079;51.824;4.682;2023-09-12T11:40:55;62.03;;;42.60;;
37997;SDS011;24079;51.824;4.682;2023-09-12T11:43:22;60.97;;;41.78;;
37997;SDS011;24079;51.824;4.682;2023-09-12T11:45:50;61.55;;;42.72;;
37997;SDS011;24079;51.824;4.682;2023-09-12T11:48:19;63.72;;;44.42;;
37997;SDS011;24079;51.824;4.682;2023-09-12T11:50:49;58.13;;;43.22;;
37997;SDS011;24079;51.824;4.682;2023-09-12T11:53:18;58.17;;;41.90;;
37997;SDS011;24079;51.824;4.682;2023-09-12T11:55:47;54.72;;;39.33;;
37997;SDS011;24079;51.824;4.682;2023-09-12T11:58:17;58.13;;;41.70;;
37997;SDS011;24079;51.824;4.682;2023-09-12T12:00:44;68.93;;;43.13;;
37997;SDS011;24079;51.824;4.682;2023-09-12T12:03:21;53.75;;;38.78;;
37997;SDS011;24079;51.824;4.682;2023-09-12T12:05:49;59.28;;;41.13;;
37997;SDS011;24079;51.824;4.682;2023-09-12T12:08:16;50.30;;;37.95;;
37997;SDS011;24079;51.824;4.682;2023-09-12T12:10:43;57.83;;;41.17;;
37997;SDS011;24079;51.824;4.682;2023-09-12T12:13:16;55.47;;;38.38;;
37997;SDS011;24079;51.824;4.682;2023-09-12T12:15:43;51.22;;;37.95;;
37997;SDS011;24079;51.824;4.682;2023-09-12T12:18:08;49.03;;;36.45;;
37997;SDS011;24079;51.824;4.682;2023-09-12T12:20:34;51.10;;;37.17;;
37997;SDS011;24079;51.824;4.682;2023-09-12T12:23:01;53.50;;;38.10;;
37997;SDS011;24079;51.824;4.682;2023-09-12T12:25:31;54.92;;;39.40;;
37997;SDS011;24079;51.824;4.682;2023-09-12T12:27:59;44.00;;;33.30;;
37997;SDS011;24079;51.824;4.682;2023-09-12T12:30:29;47.55;;;33.38;;
37997;SDS011;24079;51.824;4.682;2023-09-12T12:33:00;39.42;;;30.05;;
37997;SDS011;24079;51.824;4.682;2023-09-12T12:35:28;50.45;;;35.10;;
37997;SDS011;24079;51.824;4.682;2023-09-12T12:37:54;47.40;;;32.00;;
37997;SDS011;24079;51.824;4.682;2023-09-12T12:40:40;44.70;;;33.15;;
37997;SDS011;24079;51.824;4.682;2023-09-12T12:43:15;42.20;;;30.50;;
37997;SDS011;24079;51.824;4.682;2023-09-12T12:45:51;44.42;;;32.20;;
37997;SDS011;24079;51.824;4.682;2023-09-12T12:48:31;40.28;;;31.42;;
37997;SDS011;24079;51.824;4.682;2023-09-12T12:50:58;38.63;;;26.58;;
37997;SDS011;24079;51.824;4.682;2023-09-12T12:53:40;39.10;;;26.77;;
37997;SDS011;24079;51.824;4.682;2023-09-12T12:56:07;35.83;;;25.60;;
37997;SDS011;24079;51.824;4.682;2023-09-12T12:58:33;37.85;;;28.77;;
37997;SDS011;24079;51.824;4.682;2023-09-12T13:01:00;43.28;;;30.05;;
37997;SDS011;24079;51.824;4.682;2023-09-12T13:03:27;45.28;;;33.22;;
37997;SDS011;24079;51.824;4.682;2023-09-12T13:05:53;42.22;;;30.27;;
37997;SDS011;24079;51.824;4.682;2023-09-12T13:08:19;44.90;;;32.63;;
37997;SDS011;24079;51.824;4.682;2023-09-12T13:10:45;43.85;;;34.50;;
37997;SDS011;24079;51.824;4.682;2023-09-12T13:13:11;38.70;;;27.98;;
37997;SDS011;24079;51.824;4.682;2023-09-12T13:15:37;42.10;;;31.48;;
37997;SDS011;24079;51.824;4.682;2023-09-12T13:18:03;46.90;;;34.78;;
37997;SDS011;24079;51.824;4.682;2023-09-12T13:20:30;45.80;;;34.38;;
37997;SDS011;24079;51.824;4.682;2023-09-12T13:22:56;43.30;;;33.83;;
37997;SDS011;24079;51.824;4.682;2023-09-12T13:25:22;46.15;;;34.22;;
37997;SDS011;24079;51.824;4.682;2023-09-12T13:27:49;38.03;;;28.52;;
37997;SDS011;24079;51.824;4.682;2023-09-12T13:30:15;44.72;;;33.22;;
37997;SDS011;24079;51.824;4.682;2023-09-12T13:32:41;46.20;;;33.03;;
37997;SDS011;24079;51.824;4.682;2023-09-12T13:35:07;39.67;;;30.40;;
37997;SDS011;24079;51.824;4.682;2023-09-12T13:37:33;44.50;;;32.40;;
37997;SDS011;24079;51.824;4.682;2023-09-12T13:39:59;33.75;;;24.75;;
37997;SDS011;24079;51.824;4.682;2023-09-12T13:42:25;38.90;;;30.63;;
37997;SDS011;24079;51.824;4.682;2023-09-12T13:44:56;37.83;;;30.25;;
37997;SDS011;24079;51.824;4.682;2023-09-12T13:47:22;45.53;;;33.90;;
37997;SDS011;24079;51.824;4.682;2023-09-12T13:49:48;45.67;;;32.30;;
37997;SDS011;24079;51.824;4.682;2023-09-12T13:52:17;46.30;;;33.42;;
37997;SDS011;24079;51.824;4.682;2023-09-12T13:54:43;41.80;;;31.25;;
37997;SDS011;24079;51.824;4.682;2023-09-12T13:57:09;37.70;;;28.63;;
37997;SDS011;24079;51.824;4.682;2023-09-12T13:59:35;40.75;;;29.98;;
37997;SDS011;24079;51.824;4.682;2023-09-12T14:02:01;41.30;;;27.58;;
37997;SDS011;24079;51.824;4.682;2023-09-12T14:04:27;40.47;;;28.30;;
37997;SDS011;24079;51.824;4.682;2023-09-12T14:06:53;37.63;;;28.42;;
37997;SDS011;24079;51.824;4.682;2023-09-12T14:09:19;37.70;;;28.08;;
37997;SDS011;24079;51.824;4.682;2023-09-12T14:11:47;33.35;;;26.75;;
37997;SDS011;24079;51.824;4.682;2023-09-12T14:14:16;34.00;;;22.97;;
37997;SDS011;24079;51.824;4.682;2023-09-12T14:16:42;32.75;;;24.75;;
37997;SDS011;24079;51.824;4.682;2023-09-12T14:19:09;30.92;;;23.58;;
37997;SDS011;24079;51.824;4.682;2023-09-12T14:21:35;33.97;;;23.67;;
37997;SDS011;24079;51.824;4.682;2023-09-12T14:24:01;32.58;;;23.40;;
37997;SDS011;24079;51.824;4.682;2023-09-12T14:26:27;31.40;;;21.38;;
37997;SDS011;24079;51.824;4.682;2023-09-12T14:28:52;27.70;;;19.45;;
37997;SDS011;24079;51.824;4.682;2023-09-12T14:31:18;25.70;;;16.33;;
37997;SDS011;24079;51.824;4.682;2023-09-12T14:33:43;23.30;;;13.43;;
37997;SDS011;24079;51.824;4.682;2023-09-12T14:36:10;21.05;;;11.80;;